createdAt,value
2017-05-19T00:00:08.936Z,16.3
2017-05-19T00:00:37.178Z,16.34
2017-05-19T00:01:05.070Z,16.34
2017-05-19T00:01:33.543Z,16.32
2017-05-19T00:02:01.801Z,16.32
2017-05-19T00:02:30.099Z,16.36
2017-05-19T00:02:58.388Z,16.25
2017-05-19T00:03:26.537Z,16.36
2017-05-19T00:03:54.717Z,16.34
2017-05-19T00:04:22.809Z,16.36
2017-05-19T00:04:50.978Z,16.39
2017-05-19T00:05:19.193Z,16.34
2017-05-19T00:05:47.410Z,16.33
2017-05-19T00:06:15.455Z,16.34
2017-05-19T00:06:44.026Z,16.34
2017-05-19T00:07:12.160Z,16.36
2017-05-19T00:07:40.322Z,16.39
2017-05-19T00:08:08.597Z,16.32
2017-05-19T00:08:36.825Z,16.4
2017-05-19T00:09:05.109Z,16.36
2017-05-19T00:09:33.280Z,16.36
2017-05-19T00:10:01.562Z,16.42
2017-05-19T00:10:29.765Z,16.36
2017-05-19T00:10:58.033Z,16.3
2017-05-19T00:11:26.171Z,16.39
2017-05-19T00:11:54.306Z,16.36
2017-05-19T00:12:22.594Z,16.39
2017-05-19T00:12:50.878Z,16.42
2017-05-19T00:13:18.956Z,16.37
2017-05-19T00:13:47.218Z,16.36
2017-05-19T00:14:15.494Z,16.36
2017-05-19T00:14:43.824Z,16.36
2017-05-19T00:15:11.915Z,16.34
2017-05-19T00:15:40.169Z,16.36
2017-05-19T00:16:08.436Z,16.36
2017-05-19T00:16:36.747Z,16.36
2017-05-19T00:17:04.930Z,16.3
2017-05-19T00:17:33.082Z,16.36
2017-05-19T00:18:01.397Z,16.37
2017-05-19T00:18:29.680Z,16.32
2017-05-19T00:18:57.837Z,16.37
2017-05-19T00:19:26.006Z,16.3
2017-05-19T00:19:54.319Z,16.44
2017-05-19T00:20:22.382Z,16.37
2017-05-19T00:20:50.664Z,16.34
2017-05-19T00:21:18.597Z,16.33
2017-05-19T00:21:46.898Z,16.36
2017-05-19T00:22:15.150Z,16.32
2017-05-19T00:22:43.404Z,16.36
2017-05-19T00:23:11.678Z,16.32
2017-05-19T00:23:39.752Z,16.37
2017-05-19T00:24:07.983Z,16.32
2017-05-19T00:24:36.078Z,16.39
2017-05-19T00:25:04.291Z,16.34
2017-05-19T00:25:32.490Z,16.37
2017-05-19T00:26:00.662Z,16.37
2017-05-19T00:26:28.746Z,16.37
2017-05-19T00:26:56.989Z,16.37
2017-05-19T00:27:25.289Z,16.37
2017-05-19T00:27:53.390Z,16.42
2017-05-19T00:28:21.631Z,16.36
2017-05-19T00:28:49.863Z,16.37
2017-05-19T00:29:18.091Z,16.37
2017-05-19T00:29:46.366Z,16.39
2017-05-19T00:30:14.643Z,16.37
2017-05-19T00:30:42.926Z,16.3
2017-05-19T00:31:11.178Z,16.33
2017-05-19T00:31:39.384Z,16.34
2017-05-19T00:32:08.024Z,16.39
2017-05-19T00:32:36.313Z,16.34
2017-05-19T00:33:04.332Z,16.29
2017-05-19T00:33:32.578Z,16.32
2017-05-19T00:34:00.827Z,16.27
2017-05-19T00:34:29.004Z,16.25
2017-05-19T00:34:57.297Z,16.32
2017-05-19T00:35:25.577Z,16.33
2017-05-19T00:35:53.846Z,16.33
2017-05-19T00:36:22.043Z,16.32
2017-05-19T00:36:50.343Z,16.29
2017-05-19T00:37:18.621Z,16.3
2017-05-19T00:37:46.821Z,16.33
2017-05-19T00:38:15.028Z,16.34
2017-05-19T00:38:43.075Z,16.36
2017-05-19T00:39:11.168Z,16.32
2017-05-19T00:39:39.438Z,16.33
2017-05-19T00:40:07.563Z,16.32
2017-05-19T00:40:35.872Z,16.26
2017-05-19T00:41:04.102Z,16.33
2017-05-19T00:41:32.338Z,16.33
2017-05-19T00:42:00.638Z,16.33
2017-05-19T00:42:28.916Z,16.32
2017-05-19T00:42:56.943Z,16.29
2017-05-19T00:43:25.203Z,16.26
2017-05-19T00:43:53.355Z,16.33
2017-05-19T00:44:21.649Z,16.26
2017-05-19T00:44:49.948Z,16.27
2017-05-19T00:45:18.164Z,16.27
2017-05-19T00:45:46.337Z,16.29
2017-05-19T00:46:14.634Z,16.33
2017-05-19T00:46:42.836Z,16.26
2017-05-19T00:47:11.306Z,16.25
2017-05-19T00:47:39.555Z,16.29
2017-05-19T00:48:07.665Z,16.26
2017-05-19T00:48:35.827Z,16.29
2017-05-19T00:49:04.114Z,16.27
2017-05-19T00:49:32.401Z,16.29
2017-05-19T00:50:00.669Z,16.33
2017-05-19T00:50:28.825Z,16.32
2017-05-19T00:50:57.071Z,16.29
2017-05-19T00:51:25.347Z,16.32
2017-05-19T00:51:53.507Z,16.33
2017-05-19T00:52:22.194Z,16.32
2017-05-19T00:52:50.370Z,16.33
2017-05-19T00:53:18.603Z,16.29
2017-05-19T00:53:46.812Z,16.29
2017-05-19T00:54:14.866Z,16.27
2017-05-19T00:54:43.048Z,16.33
2017-05-19T00:55:11.228Z,16.32
2017-05-19T00:55:39.506Z,16.32
2017-05-19T00:56:07.460Z,16.3
2017-05-19T00:56:35.766Z,16.32
2017-05-19T00:57:04.008Z,16.33
2017-05-19T00:57:32.347Z,16.29
2017-05-19T00:58:00.511Z,16.3
2017-05-19T00:58:28.699Z,16.29
2017-05-19T00:58:56.983Z,16.25
2017-05-19T00:59:25.121Z,16.34
2017-05-19T00:59:53.397Z,16.3
2017-05-19T01:00:21.632Z,16.32
2017-05-19T01:00:49.914Z,16.27
2017-05-19T01:01:18.013Z,16.26
2017-05-19T01:01:46.259Z,16.3
2017-05-19T01:02:14.825Z,16.32
2017-05-19T01:02:43.117Z,16.29
2017-05-19T01:03:11.280Z,16.32
2017-05-19T01:03:39.432Z,16.33
2017-05-19T01:04:07.553Z,16.29
2017-05-19T01:04:35.731Z,16.33
2017-05-19T01:05:03.962Z,16.33
2017-05-19T01:05:32.208Z,16.33
2017-05-19T01:06:00.348Z,16.26
2017-05-19T01:06:28.393Z,16.32
2017-05-19T01:06:56.587Z,16.3
2017-05-19T01:07:25.197Z,16.32
2017-05-19T01:07:53.346Z,16.27
2017-05-19T01:08:21.497Z,16.3
2017-05-19T01:08:49.779Z,16.32
2017-05-19T01:09:17.993Z,16.33
2017-05-19T01:09:46.237Z,16.3
2017-05-19T01:10:14.494Z,16.3
2017-05-19T01:10:42.762Z,16.26
2017-05-19T01:11:11.083Z,16.33
2017-05-19T01:11:39.683Z,16.33
2017-05-19T01:12:07.828Z,16.3
2017-05-19T01:12:36.083Z,16.37
2017-05-19T01:13:04.258Z,16.33
2017-05-19T01:13:32.487Z,16.34
2017-05-19T01:14:00.625Z,16.34
2017-05-19T01:14:28.866Z,16.3
2017-05-19T01:14:57.061Z,16.32
2017-05-19T01:15:25.038Z,16.3
2017-05-19T01:15:53.268Z,16.3
2017-05-19T01:16:21.545Z,16.37
2017-05-19T01:16:49.667Z,16.33
2017-05-19T01:17:17.847Z,16.37
2017-05-19T01:17:46.174Z,16.44
2017-05-19T01:18:14.361Z,16.36
2017-05-19T01:18:42.630Z,16.4
2017-05-19T01:19:10.811Z,16.37
2017-05-19T01:19:38.971Z,16.37
2017-05-19T01:20:07.105Z,16.36
2017-05-19T01:20:35.291Z,16.42
2017-05-19T01:21:03.592Z,16.33
2017-05-19T01:21:31.752Z,16.37
2017-05-19T01:21:59.979Z,16.37
2017-05-19T01:22:28.112Z,16.42
2017-05-19T01:22:56.685Z,16.4
2017-05-19T01:23:24.974Z,16.39
2017-05-19T01:23:53.238Z,16.4
2017-05-19T01:24:21.456Z,16.39
2017-05-19T01:24:49.714Z,16.44
2017-05-19T01:25:18.000Z,16.37
2017-05-19T01:25:46.210Z,16.42
2017-05-19T01:26:14.430Z,16.44
2017-05-19T01:26:42.703Z,16.4
2017-05-19T01:27:10.876Z,16.39
2017-05-19T01:27:39.146Z,16.36
2017-05-19T01:28:07.196Z,16.34
2017-05-19T01:28:35.435Z,16.39
2017-05-19T01:29:03.900Z,16.36
2017-05-19T01:29:32.061Z,16.39
2017-05-19T01:30:00.103Z,16.37
2017-05-19T01:30:28.281Z,16.37
2017-05-19T01:30:56.387Z,16.39
2017-05-19T01:31:24.754Z,16.34
2017-05-19T01:31:53.087Z,16.39
2017-05-19T01:32:21.355Z,16.37
2017-05-19T01:32:49.698Z,16.36
2017-05-19T01:33:17.892Z,16.34
2017-05-19T01:33:46.148Z,16.37
2017-05-19T01:34:14.433Z,16.37
2017-05-19T01:34:42.647Z,16.36
2017-05-19T01:35:10.726Z,16.29
2017-05-19T01:35:39.035Z,16.32
2017-05-19T01:36:07.317Z,16.33
2017-05-19T01:36:35.312Z,16.32
2017-05-19T01:37:03.585Z,16.25
2017-05-19T01:37:31.919Z,16.32
2017-05-19T01:38:00.409Z,16.3
2017-05-19T01:38:28.576Z,16.32
2017-05-19T01:38:56.867Z,16.29
2017-05-19T01:39:25.005Z,16.27
2017-05-19T01:39:53.165Z,16.21
2017-05-19T01:40:21.445Z,16.33
2017-05-19T01:40:49.701Z,16.22
2017-05-19T01:41:17.783Z,16.27
2017-05-19T01:41:45.956Z,16.26
2017-05-19T01:42:14.036Z,16.18
2017-05-19T01:42:42.158Z,16.26
2017-05-19T01:43:10.630Z,16.25
2017-05-19T01:43:38.769Z,16.21
2017-05-19T01:44:06.959Z,16.25
2017-05-19T01:44:35.288Z,16.21
2017-05-19T01:45:03.427Z,16.22
2017-05-19T01:45:31.620Z,16.25
2017-05-19T01:45:59.895Z,16.22
2017-05-19T01:46:28.178Z,16.25
2017-05-19T01:46:56.353Z,16.18
2017-05-19T01:47:24.622Z,16.17
2017-05-19T01:47:52.903Z,16.22
2017-05-19T01:48:21.251Z,16.17
2017-05-19T01:48:49.579Z,16.18
2017-05-19T01:49:17.801Z,16.22
2017-05-19T01:49:45.962Z,16.16
2017-05-19T01:50:14.124Z,16.17
2017-05-19T01:50:42.419Z,16.22
2017-05-19T01:51:10.739Z,16.14
2017-05-19T01:51:38.961Z,16.22
2017-05-19T01:52:07.161Z,16.17
2017-05-19T01:52:35.394Z,16.13
2017-05-19T01:53:03.946Z,16.21
2017-05-19T01:53:32.094Z,16.25
2017-05-19T01:54:00.336Z,16.21
2017-05-19T01:54:28.604Z,16.21
2017-05-19T01:54:56.763Z,16.25
2017-05-19T01:55:25.027Z,16.18
2017-05-19T01:55:53.282Z,16.21
2017-05-19T01:56:21.556Z,16.21
2017-05-19T01:56:49.720Z,16.22
2017-05-19T01:57:17.882Z,16.13
2017-05-19T01:57:46.256Z,16.11
2017-05-19T01:58:14.506Z,16.14
2017-05-19T01:58:42.687Z,16.1
2017-05-19T01:59:11.123Z,16.1
2017-05-19T01:59:39.281Z,16.11
2017-05-19T02:00:07.571Z,16.08
2017-05-19T02:00:35.799Z,16.11
2017-05-19T02:01:03.747Z,16.07
2017-05-19T02:01:32.043Z,16.13
2017-05-19T02:02:00.338Z,16.13
2017-05-19T02:02:28.618Z,16.13
2017-05-19T02:02:56.885Z,16.11
2017-05-19T02:03:25.465Z,16.13
2017-05-19T02:03:53.738Z,16.11
2017-05-19T02:04:21.829Z,16.08
2017-05-19T02:04:50.119Z,16.1
2017-05-19T02:05:18.408Z,16.14
2017-05-19T02:05:46.716Z,16.14
2017-05-19T02:06:14.995Z,16.14
2017-05-19T02:06:43.299Z,16.16
2017-05-19T02:07:11.557Z,16.17
2017-05-19T02:07:39.804Z,16.1
2017-05-19T02:08:07.973Z,16.13
2017-05-19T02:08:36.376Z,16.11
2017-05-19T02:09:04.632Z,16.13
2017-05-19T02:09:32.931Z,16.13
2017-05-19T02:10:01.134Z,16.13
2017-05-19T02:10:29.410Z,16.11
2017-05-19T02:10:57.556Z,16.13
2017-05-19T02:11:25.771Z,16.07
2017-05-19T02:11:54.040Z,16.08
2017-05-19T02:12:22.198Z,16.13
2017-05-19T02:12:50.548Z,16.13
2017-05-19T02:13:18.990Z,16.18
2017-05-19T02:13:47.389Z,16.16
2017-05-19T02:14:15.578Z,16.11
2017-05-19T02:14:43.826Z,16.08
2017-05-19T02:15:12.105Z,16.17
2017-05-19T02:15:40.385Z,16.08
2017-05-19T02:16:08.643Z,16.1
2017-05-19T02:16:36.914Z,16.1
2017-05-19T02:17:05.090Z,16.17
2017-05-19T02:17:33.365Z,16.11
2017-05-19T02:18:01.529Z,16.13
2017-05-19T02:18:29.808Z,16.13
2017-05-19T02:18:57.955Z,16.1
2017-05-19T02:19:26.010Z,16.1
2017-05-19T02:19:54.265Z,16.1
2017-05-19T02:20:22.483Z,16.13
2017-05-19T02:20:50.587Z,16.08
2017-05-19T02:21:18.741Z,16.11
2017-05-19T02:21:47.001Z,16.14
2017-05-19T02:22:15.226Z,16.14
2017-05-19T02:22:43.508Z,16.08
2017-05-19T02:23:11.853Z,16.1
2017-05-19T02:23:40.303Z,16.14
2017-05-19T02:24:08.432Z,16.11
2017-05-19T02:24:36.695Z,16.13
2017-05-19T02:25:04.937Z,16.1
2017-05-19T02:25:33.069Z,16.14
2017-05-19T02:26:01.250Z,16.18
2017-05-19T02:26:29.534Z,16.17
2017-05-19T02:26:57.807Z,16.18
2017-05-19T02:27:26.090Z,16.16
2017-05-19T02:27:54.296Z,16.25
2017-05-19T02:28:22.540Z,16.18
2017-05-19T02:28:50.781Z,16.21
2017-05-19T02:29:18.792Z,16.17
2017-05-19T02:29:46.833Z,16.21
2017-05-19T02:30:14.979Z,16.18
2017-05-19T02:30:43.091Z,16.22
2017-05-19T02:31:11.296Z,16.21
2017-05-19T02:31:39.621Z,16.1
2017-05-19T02:32:07.687Z,16.13
2017-05-19T02:32:35.965Z,16.11
2017-05-19T02:33:04.171Z,16.13
2017-05-19T02:33:32.261Z,16.18
2017-05-19T02:34:00.797Z,16.14
2017-05-19T02:34:29.166Z,16.13
2017-05-19T02:34:57.574Z,16.16
2017-05-19T02:35:25.882Z,16.18
2017-05-19T02:35:54.260Z,16.14
2017-05-19T02:36:22.590Z,16.13
2017-05-19T02:36:50.753Z,16.13
2017-05-19T02:37:18.873Z,16.18
2017-05-19T02:37:47.248Z,16.13
2017-05-19T02:38:15.305Z,16.02
2017-05-19T02:38:43.630Z,16
2017-05-19T02:39:11.974Z,16.06
2017-05-19T02:39:40.064Z,16.04
2017-05-19T02:40:08.129Z,16.04
2017-05-19T02:40:36.416Z,16.04
2017-05-19T02:41:04.467Z,16.02
2017-05-19T02:41:32.785Z,15.98
2017-05-19T02:42:00.959Z,16.02
2017-05-19T02:42:29.192Z,15.99
2017-05-19T02:42:57.409Z,16.04
2017-05-19T02:43:25.680Z,15.99
2017-05-19T02:43:54.055Z,16.04
2017-05-19T02:44:22.232Z,16
2017-05-19T02:44:50.278Z,16
2017-05-19T02:45:18.358Z,15.96
2017-05-19T02:45:46.624Z,15.98
2017-05-19T02:46:14.912Z,15.99
2017-05-19T02:46:42.904Z,15.96
2017-05-19T02:47:11.116Z,15.99
2017-05-19T02:47:39.214Z,16.04
2017-05-19T02:48:07.401Z,16.02
2017-05-19T02:48:35.634Z,16.02
2017-05-19T02:49:04.119Z,16.04
2017-05-19T02:49:32.275Z,16.04
2017-05-19T02:50:00.431Z,16.04
2017-05-19T02:50:28.702Z,16.06
2017-05-19T02:50:56.879Z,16.02
2017-05-19T02:51:25.105Z,15.96
2017-05-19T02:51:53.297Z,15.91
2017-05-19T02:52:21.629Z,15.96
2017-05-19T02:52:49.873Z,15.95
2017-05-19T02:53:18.167Z,16.04
2017-05-19T02:53:46.323Z,15.93
2017-05-19T02:54:14.801Z,16
2017-05-19T02:54:43.042Z,15.92
2017-05-19T02:55:11.258Z,15.95
2017-05-19T02:55:39.529Z,15.89
2017-05-19T02:56:07.719Z,15.95
2017-05-19T02:56:36.025Z,15.86
2017-05-19T02:57:04.233Z,15.93
2017-05-19T02:57:32.466Z,15.86
2017-05-19T02:58:00.732Z,15.91
2017-05-19T02:58:29.017Z,15.88
2017-05-19T02:58:57.251Z,15.91
2017-05-19T02:59:25.652Z,15.89
2017-05-19T02:59:53.895Z,15.84
2017-05-19T03:00:22.124Z,15.81
2017-05-19T03:00:50.387Z,15.83
2017-05-19T03:01:18.747Z,15.89
2017-05-19T03:01:47.025Z,15.88
2017-05-19T03:02:15.422Z,15.83
2017-05-19T03:02:43.694Z,15.89
2017-05-19T03:03:11.972Z,15.81
2017-05-19T03:03:40.182Z,15.88
2017-05-19T03:04:08.394Z,15.88
2017-05-19T03:04:36.736Z,15.89
2017-05-19T03:05:05.011Z,15.88
2017-05-19T03:05:33.296Z,15.91
2017-05-19T03:06:01.584Z,15.88
2017-05-19T03:06:29.719Z,15.88
2017-05-19T03:06:58.064Z,15.84
2017-05-19T03:07:26.335Z,15.83
2017-05-19T03:07:54.497Z,15.91
2017-05-19T03:08:22.685Z,15.89
2017-05-19T03:08:50.864Z,15.81
2017-05-19T03:09:19.222Z,15.86
2017-05-19T03:09:47.497Z,15.8
2017-05-19T03:10:15.663Z,15.78
2017-05-19T03:10:43.801Z,15.81
2017-05-19T03:11:11.796Z,15.8
2017-05-19T03:11:40.091Z,15.8
2017-05-19T03:12:08.405Z,15.81
2017-05-19T03:12:36.636Z,15.71
2017-05-19T03:13:04.947Z,15.75
2017-05-19T03:13:32.981Z,15.75
2017-05-19T03:14:01.253Z,15.77
2017-05-19T03:14:29.691Z,15.81
2017-05-19T03:14:57.869Z,15.75
2017-05-19T03:15:26.099Z,15.75
2017-05-19T03:15:54.310Z,15.74
2017-05-19T03:16:22.497Z,15.77
2017-05-19T03:16:50.690Z,15.75
2017-05-19T03:17:18.912Z,15.73
2017-05-19T03:17:47.099Z,15.78
2017-05-19T03:18:15.219Z,15.73
2017-05-19T03:18:43.527Z,15.83
2017-05-19T03:19:11.672Z,15.78
2017-05-19T03:19:40.073Z,15.8
2017-05-19T03:20:08.262Z,15.74
2017-05-19T03:20:36.523Z,15.73
2017-05-19T03:21:04.886Z,15.75
2017-05-19T03:21:32.940Z,15.68
2017-05-19T03:22:01.213Z,15.73
2017-05-19T03:22:29.435Z,15.81
2017-05-19T03:22:57.611Z,15.78
2017-05-19T03:23:25.798Z,15.77
2017-05-19T03:23:54.169Z,15.78
2017-05-19T03:24:22.498Z,15.84
2017-05-19T03:24:51.095Z,15.71
2017-05-19T03:25:19.280Z,15.78
2017-05-19T03:25:47.708Z,15.86
2017-05-19T03:26:16.035Z,15.84
2017-05-19T03:26:44.021Z,15.84
2017-05-19T03:27:12.409Z,15.8
2017-05-19T03:27:40.619Z,15.77
2017-05-19T03:28:09.026Z,15.77
2017-05-19T03:28:37.433Z,15.84
2017-05-19T03:29:05.810Z,15.89
2017-05-19T03:29:34.059Z,15.84
2017-05-19T03:30:02.104Z,15.86
2017-05-19T03:30:30.455Z,15.73
2017-05-19T03:30:58.708Z,15.78
2017-05-19T03:31:26.869Z,15.8
2017-05-19T03:31:55.107Z,15.74
2017-05-19T03:32:23.334Z,15.75
2017-05-19T03:32:51.517Z,15.75
2017-05-19T03:33:19.850Z,15.74
2017-05-19T03:33:48.029Z,15.77
2017-05-19T03:34:16.325Z,15.8
2017-05-19T03:34:44.603Z,15.75
2017-05-19T03:35:12.844Z,15.75
2017-05-19T03:35:41.050Z,15.71
2017-05-19T03:36:09.130Z,15.77
2017-05-19T03:36:37.342Z,15.75
2017-05-19T03:37:05.427Z,15.74
2017-05-19T03:37:33.603Z,15.77
2017-05-19T03:38:01.867Z,15.71
2017-05-19T03:38:30.101Z,15.83
2017-05-19T03:38:58.139Z,15.78
2017-05-19T03:39:26.261Z,15.75
2017-05-19T03:39:54.533Z,15.75
2017-05-19T03:40:22.655Z,15.86
2017-05-19T03:40:50.880Z,15.77
2017-05-19T03:41:19.131Z,15.77
2017-05-19T03:41:47.396Z,15.8
2017-05-19T03:42:15.688Z,15.81
2017-05-19T03:42:43.858Z,15.74
2017-05-19T03:43:12.137Z,15.89
2017-05-19T03:43:40.383Z,15.71
2017-05-19T03:44:08.542Z,15.8
2017-05-19T03:44:36.647Z,15.91
2017-05-19T03:45:04.850Z,15.91
2017-05-19T03:45:33.066Z,15.88
2017-05-19T03:46:01.234Z,15.83
2017-05-19T03:46:29.521Z,15.84
2017-05-19T03:46:57.660Z,15.89
2017-05-19T03:47:25.984Z,15.84
2017-05-19T03:47:54.149Z,15.89
2017-05-19T03:48:22.370Z,15.8
2017-05-19T03:48:50.768Z,15.78
2017-05-19T03:49:18.906Z,15.86
2017-05-19T03:49:47.002Z,15.83
2017-05-19T03:50:15.332Z,15.86
2017-05-19T03:50:43.626Z,15.78
2017-05-19T03:51:11.917Z,15.77
2017-05-19T03:51:40.093Z,15.77
2017-05-19T03:52:08.434Z,15.81
2017-05-19T03:52:36.753Z,15.77
2017-05-19T03:53:05.016Z,15.86
2017-05-19T03:53:33.423Z,15.78
2017-05-19T03:54:01.610Z,15.89
2017-05-19T03:54:29.844Z,15.75
2017-05-19T03:54:58.140Z,15.8
2017-05-19T03:55:26.751Z,15.75
2017-05-19T03:55:55.034Z,15.78
2017-05-19T03:56:23.342Z,15.89
2017-05-19T03:56:51.592Z,15.78
2017-05-19T03:57:19.851Z,15.88
2017-05-19T03:57:48.192Z,15.8
2017-05-19T03:58:16.514Z,15.81
2017-05-19T03:58:44.817Z,15.81
2017-05-19T03:59:13.114Z,15.77
2017-05-19T03:59:41.492Z,15.8
2017-05-19T04:00:09.880Z,15.75
2017-05-19T04:00:37.969Z,15.77
2017-05-19T04:01:06.137Z,15.81
2017-05-19T04:01:34.511Z,15.75
2017-05-19T04:02:02.681Z,15.71
2017-05-19T04:02:30.996Z,15.73
2017-05-19T04:02:59.266Z,15.77
2017-05-19T04:03:27.624Z,15.75
2017-05-19T04:03:55.780Z,15.77
2017-05-19T04:04:24.039Z,15.81
2017-05-19T04:04:52.358Z,15.78
2017-05-19T04:05:20.793Z,15.8
2017-05-19T04:05:48.872Z,15.75
2017-05-19T04:06:17.163Z,15.74
2017-05-19T04:06:45.593Z,15.77
2017-05-19T04:07:13.854Z,15.68
2017-05-19T04:07:42.267Z,15.77
2017-05-19T04:08:10.579Z,15.74
2017-05-19T04:08:38.630Z,15.74
2017-05-19T04:09:06.995Z,15.75
2017-05-19T04:09:35.243Z,15.78
2017-05-19T04:10:03.426Z,15.81
2017-05-19T04:10:31.768Z,15.71
2017-05-19T04:11:00.193Z,15.78
2017-05-19T04:11:28.249Z,15.74
2017-05-19T04:11:56.387Z,15.77
2017-05-19T04:12:24.846Z,15.78
2017-05-19T04:12:53.052Z,15.77
2017-05-19T04:13:21.397Z,15.74
2017-05-19T04:13:49.649Z,15.71
2017-05-19T04:14:18.004Z,15.71
2017-05-19T04:14:46.271Z,15.83
2017-05-19T04:15:14.366Z,15.74
2017-05-19T04:15:42.783Z,15.78
2017-05-19T04:16:10.948Z,15.71
2017-05-19T04:16:39.182Z,15.74
2017-05-19T04:17:07.409Z,15.78
2017-05-19T04:17:35.786Z,15.75
2017-05-19T04:18:04.050Z,15.83
2017-05-19T04:18:32.379Z,15.71
2017-05-19T04:19:00.676Z,15.81
2017-05-19T04:19:28.799Z,15.75
2017-05-19T04:19:56.902Z,15.75
2017-05-19T04:20:25.423Z,15.75
2017-05-19T04:20:53.733Z,15.75
2017-05-19T04:21:22.007Z,15.73
2017-05-19T04:21:50.245Z,15.73
2017-05-19T04:22:18.427Z,15.74
2017-05-19T04:22:46.631Z,15.74
2017-05-19T04:23:14.900Z,15.78
2017-05-19T04:23:43.218Z,15.75
2017-05-19T04:24:11.510Z,15.77
2017-05-19T04:24:39.774Z,15.73
2017-05-19T04:25:08.008Z,15.75
2017-05-19T04:25:36.401Z,15.75
2017-05-19T04:26:04.671Z,15.78
2017-05-19T04:26:32.891Z,15.73
2017-05-19T04:27:01.171Z,15.71
2017-05-19T04:27:29.464Z,15.84
2017-05-19T04:27:57.833Z,15.75
2017-05-19T04:28:25.994Z,15.74
2017-05-19T04:28:54.195Z,15.77
2017-05-19T04:29:22.349Z,15.8
2017-05-19T04:29:50.447Z,15.74
2017-05-19T04:30:18.735Z,15.83
2017-05-19T04:30:47.103Z,15.8
2017-05-19T04:31:15.387Z,15.77
2017-05-19T04:31:43.658Z,15.71
2017-05-19T04:32:11.928Z,15.89
2017-05-19T04:32:40.110Z,15.86
2017-05-19T04:33:08.373Z,15.77
2017-05-19T04:33:36.650Z,15.86
2017-05-19T04:34:04.779Z,15.86
2017-05-19T04:34:33.084Z,15.86
2017-05-19T04:35:01.265Z,15.8
2017-05-19T04:35:29.551Z,15.84
2017-05-19T04:35:57.995Z,15.86
2017-05-19T04:36:26.153Z,15.81
2017-05-19T04:36:54.372Z,15.88
2017-05-19T04:37:22.665Z,15.89
2017-05-19T04:37:50.907Z,15.86
2017-05-19T04:38:19.184Z,15.92
2017-05-19T04:38:47.483Z,15.89
2017-05-19T04:39:17.220Z,15.88
2017-05-19T04:39:45.519Z,15.86
2017-05-19T04:40:13.809Z,15.86
2017-05-19T04:40:42.219Z,15.88
2017-05-19T04:41:10.515Z,15.89
2017-05-19T04:41:38.703Z,15.86
2017-05-19T04:42:06.895Z,15.88
2017-05-19T04:42:35.227Z,15.86
2017-05-19T04:43:03.622Z,15.89
2017-05-19T04:43:31.658Z,15.86
2017-05-19T04:43:59.907Z,15.89
2017-05-19T04:44:28.252Z,15.91
2017-05-19T04:44:56.671Z,15.91
2017-05-19T04:45:24.715Z,15.91
2017-05-19T04:45:52.992Z,15.84
2017-05-19T04:46:21.536Z,15.86
2017-05-19T04:46:49.556Z,15.86
2017-05-19T04:47:17.645Z,15.86
2017-05-19T04:47:46.255Z,15.95
2017-05-19T04:48:14.408Z,15.91
2017-05-19T04:48:43.020Z,15.93
2017-05-19T04:49:11.300Z,15.88
2017-05-19T04:49:39.385Z,15.91
2017-05-19T04:50:07.707Z,15.84
2017-05-19T04:50:36.015Z,15.88
2017-05-19T04:51:04.326Z,15.84
2017-05-19T04:51:32.400Z,15.91
2017-05-19T04:52:00.762Z,15.91
2017-05-19T04:52:29.032Z,15.88
2017-05-19T04:52:57.246Z,15.86
2017-05-19T04:53:25.409Z,15.86
2017-05-19T04:53:53.611Z,15.95
2017-05-19T04:54:21.957Z,15.88
2017-05-19T04:54:50.207Z,15.92
2017-05-19T04:55:18.713Z,15.95
2017-05-19T04:55:46.835Z,15.92
2017-05-19T04:56:15.349Z,15.96
2017-05-19T04:56:43.404Z,15.88
2017-05-19T04:57:11.823Z,15.95
2017-05-19T04:57:40.097Z,15.95
2017-05-19T04:58:08.327Z,15.93
2017-05-19T04:58:36.547Z,15.93
2017-05-19T04:59:04.837Z,15.96
2017-05-19T04:59:33.112Z,15.95
2017-05-19T05:00:01.683Z,15.88
2017-05-19T05:00:29.933Z,15.84
2017-05-19T05:00:58.174Z,15.95
2017-05-19T05:01:26.724Z,15.95
2017-05-19T05:01:55.103Z,15.95
2017-05-19T05:02:23.386Z,15.95
2017-05-19T05:02:51.643Z,15.93
2017-05-19T05:03:19.882Z,15.95
2017-05-19T05:03:48.179Z,16
2017-05-19T05:04:16.264Z,15.98
2017-05-19T05:04:44.637Z,15.96
2017-05-19T05:05:12.688Z,16.02
2017-05-19T05:05:40.805Z,15.96
2017-05-19T05:06:09.496Z,16
2017-05-19T05:06:37.805Z,16
2017-05-19T05:07:06.078Z,16.02
2017-05-19T05:07:34.430Z,16.06
2017-05-19T05:08:02.563Z,16
2017-05-19T05:08:30.728Z,15.91
2017-05-19T05:08:58.999Z,16
2017-05-19T05:09:27.171Z,15.91
2017-05-19T05:09:55.691Z,16
2017-05-19T05:10:23.848Z,15.96
2017-05-19T05:10:52.142Z,16.02
2017-05-19T05:11:20.392Z,15.99
2017-05-19T05:11:48.820Z,15.99
2017-05-19T05:12:17.048Z,15.99
2017-05-19T05:12:45.524Z,16.02
2017-05-19T05:13:13.774Z,16
2017-05-19T05:13:41.971Z,15.96
2017-05-19T05:14:10.115Z,15.96
2017-05-19T05:14:38.818Z,15.93
2017-05-19T05:15:07.091Z,16
2017-05-19T05:15:35.556Z,16
2017-05-19T05:16:04.085Z,16
2017-05-19T05:16:32.571Z,16.02
2017-05-19T05:17:00.834Z,16.02
2017-05-19T05:17:29.461Z,16.04
2017-05-19T05:17:57.658Z,15.98
2017-05-19T05:18:26.017Z,15.95
2017-05-19T05:18:54.299Z,15.93
2017-05-19T05:19:22.656Z,16.06
2017-05-19T05:19:51.140Z,15.95
2017-05-19T05:20:19.280Z,15.96
2017-05-19T05:20:47.769Z,15.93
2017-05-19T05:21:15.953Z,15.92
2017-05-19T05:21:44.541Z,16.02
2017-05-19T05:22:12.743Z,15.93
2017-05-19T05:22:40.959Z,15.99
2017-05-19T05:23:09.206Z,15.93
2017-05-19T05:23:37.509Z,15.95
2017-05-19T05:24:05.744Z,15.93
2017-05-19T05:24:33.933Z,15.96
2017-05-19T05:25:02.086Z,15.92
2017-05-19T05:25:30.286Z,16
2017-05-19T05:25:58.552Z,15.95
2017-05-19T05:26:26.742Z,15.93
2017-05-19T05:26:55.199Z,15.93
2017-05-19T05:27:23.435Z,15.95
2017-05-19T05:27:51.485Z,15.92
2017-05-19T05:28:19.799Z,15.92
2017-05-19T05:28:48.053Z,15.95
2017-05-19T05:29:16.275Z,16.04
2017-05-19T05:29:44.433Z,15.96
2017-05-19T05:30:12.745Z,15.95
2017-05-19T05:30:40.896Z,15.99
2017-05-19T05:31:09.145Z,15.93
2017-05-19T05:31:37.728Z,15.92
2017-05-19T05:32:06.016Z,15.93
2017-05-19T05:32:34.275Z,15.92
2017-05-19T05:33:02.607Z,15.84
2017-05-19T05:33:30.832Z,15.91
2017-05-19T05:33:59.105Z,15.89
2017-05-19T05:34:27.273Z,15.84
2017-05-19T05:34:55.422Z,15.92
2017-05-19T05:35:23.684Z,15.89
2017-05-19T05:35:51.978Z,15.84
2017-05-19T05:36:20.122Z,15.88
2017-05-19T05:36:48.569Z,15.86
2017-05-19T05:37:16.845Z,15.88
2017-05-19T05:37:44.939Z,15.95
2017-05-19T05:38:13.157Z,15.91
2017-05-19T05:38:41.433Z,15.92
2017-05-19T05:39:09.602Z,15.81
2017-05-19T05:39:37.826Z,15.86
2017-05-19T05:40:06.066Z,15.86
2017-05-19T05:40:34.371Z,15.88
2017-05-19T05:41:02.423Z,15.93
2017-05-19T05:41:30.677Z,15.93
2017-05-19T05:41:59.121Z,15.84
2017-05-19T05:42:27.227Z,15.95
2017-05-19T05:42:55.383Z,15.92
2017-05-19T05:43:23.561Z,15.84
2017-05-19T05:43:51.671Z,15.88
2017-05-19T05:44:19.866Z,15.84
2017-05-19T05:44:48.041Z,15.86
2017-05-19T05:45:16.213Z,15.8
2017-05-19T05:45:44.331Z,15.84
2017-05-19T05:46:12.493Z,15.84
2017-05-19T05:46:40.781Z,15.77
2017-05-19T05:47:09.093Z,15.75
2017-05-19T05:47:37.212Z,15.81
2017-05-19T05:48:05.503Z,15.89
2017-05-19T05:48:33.694Z,15.7
2017-05-19T05:49:01.915Z,15.78
2017-05-19T05:49:30.133Z,15.74
2017-05-19T05:49:58.320Z,15.75
2017-05-19T05:50:26.464Z,15.78
2017-05-19T05:50:54.730Z,15.78
2017-05-19T05:51:22.774Z,15.74
2017-05-19T05:51:50.847Z,15.75
2017-05-19T05:52:19.315Z,15.78
2017-05-19T05:52:47.495Z,15.78
2017-05-19T05:53:15.756Z,15.71
2017-05-19T05:53:43.891Z,15.74
2017-05-19T05:54:12.139Z,15.74
2017-05-19T05:54:40.293Z,15.7
2017-05-19T05:55:08.593Z,15.7
2017-05-19T05:55:36.891Z,15.71
2017-05-19T05:56:05.080Z,15.74
2017-05-19T05:56:33.186Z,15.74
2017-05-19T05:57:01.465Z,15.71
2017-05-19T05:57:29.721Z,15.7
2017-05-19T05:57:57.931Z,15.7
2017-05-19T05:58:26.094Z,15.74
2017-05-19T05:58:54.339Z,15.77
2017-05-19T05:59:22.496Z,15.77
2017-05-19T05:59:50.582Z,15.7
2017-05-19T06:00:19.183Z,15.84
2017-05-19T06:00:47.374Z,15.81
2017-05-19T06:01:15.640Z,15.81
2017-05-19T06:01:43.827Z,15.74
2017-05-19T06:02:12.352Z,15.74
2017-05-19T06:02:40.461Z,15.7
2017-05-19T06:03:08.770Z,15.65
2017-05-19T06:03:37.060Z,15.75
2017-05-19T06:04:05.224Z,15.74
2017-05-19T06:04:33.425Z,15.74
2017-05-19T06:05:01.606Z,15.78
2017-05-19T06:05:29.879Z,15.74